createdAt,value
2022-09-11T00:01:36.653Z,76.49
2022-09-11T00:04:04.766Z,76.31
2022-09-11T00:06:32.855Z,75.75
2022-09-11T00:09:02.956Z,74.61
2022-09-11T00:11:34.488Z,74.21
2022-09-11T00:14:02.435Z,73.55
2022-09-11T00:16:31.487Z,72.38
2022-09-11T00:19:02.272Z,72.15
2022-09-11T00:21:30.403Z,72.00
2022-09-11T00:23:58.067Z,72.88
2022-09-11T00:26:26.256Z,73.28
2022-09-11T00:28:55.277Z,73.04
2022-09-11T00:31:28.455Z,73.12
2022-09-11T00:33:56.748Z,72.32
2022-09-11T00:36:27.927Z,72.52
2022-09-11T00:38:56.524Z,72.88
2022-09-11T00:41:31.849Z,72.67
2022-09-11T00:44:02.755Z,73.12
2022-09-11T00:46:51.886Z,73.37
2022-09-11T00:49:30.620Z,73.74
2022-09-11T00:52:07.477Z,73.55
2022-09-11T00:54:41.700Z,73.07
2022-09-11T00:57:09.811Z,73.66
2022-09-11T00:59:41.837Z,73.57
2022-09-11T01:02:15.912Z,73.49
2022-09-11T01:04:43.987Z,74.41
2022-09-11T01:07:13.821Z,74.92
2022-09-11T01:09:42.939Z,74.96
2022-09-11T01:12:18.549Z,74.95
2022-09-11T01:15:03.650Z,75.13
2022-09-11T01:17:46.812Z,74.56
2022-09-11T01:20:32.219Z,74.80
2022-09-11T01:23:12.670Z,73.84
2022-09-11T01:25:58.515Z,74.31
2022-09-11T01:28:59.905Z,74.44
2022-09-11T01:31:34.013Z,73.69
2022-09-11T01:34:15.852Z,73.71
2022-09-11T01:36:53.842Z,74.22
2022-09-11T01:39:29.649Z,74.09
2022-09-11T01:42:03.283Z,75.05
2022-09-11T01:44:36.894Z,74.12
2022-09-11T01:47:13.466Z,73.71
2022-09-11T01:49:44.057Z,73.13
2022-09-11T01:52:18.266Z,73.16
2022-09-11T01:55:01.302Z,72.87
2022-09-11T01:57:39.016Z,73.21
2022-09-11T02:00:10.870Z,72.98
2022-09-11T02:02:49.802Z,72.73
2022-09-11T02:05:23.617Z,72.88
2022-09-11T02:07:58.411Z,72.77
2022-09-11T02:10:33.091Z,73.33
2022-09-11T02:13:20.673Z,73.03
2022-09-11T02:15:53.637Z,72.68
2022-09-11T02:18:31.093Z,73.16
2022-09-11T02:20:58.643Z,73.71
2022-09-11T02:23:30.056Z,73.22
2022-09-11T02:25:57.630Z,73.65
2022-09-11T02:28:25.502Z,72.43
2022-09-11T02:30:53.932Z,72.59
2022-09-11T02:33:36.030Z,73.19
2022-09-11T02:36:32.222Z,73.16
2022-09-11T02:39:11.795Z,73.58
2022-09-11T02:42:12.516Z,73.50
2022-09-11T02:45:18.157Z,73.65
2022-09-11T02:48:10.430Z,72.46
2022-09-11T02:50:44.380Z,71.67
2022-09-11T02:53:26.616Z,72.20
2022-09-11T02:56:16.885Z,72.50
2022-09-11T02:58:55.341Z,71.94
2022-09-11T03:01:24.199Z,72.88
2022-09-11T03:03:52.570Z,73.07
2022-09-11T03:06:23.114Z,72.94
2022-09-11T03:08:54.425Z,72.67
2022-09-11T03:11:22.340Z,72.47
2022-09-11T03:13:50.780Z,72.40
2022-09-11T03:16:20.345Z,72.63
2022-09-11T03:18:47.970Z,72.94
2022-09-11T03:21:16.831Z,73.51
2022-09-11T03:23:44.733Z,74.19
2022-09-11T03:26:12.316Z,74.25
2022-09-11T03:28:40.064Z,74.46
2022-09-11T03:31:09.533Z,75.15
2022-09-11T03:33:37.564Z,74.68
2022-09-11T03:36:05.803Z,74.54
2022-09-11T03:38:33.351Z,74.75
2022-09-11T03:41:03.388Z,75.34
2022-09-11T03:43:33.328Z,75.57
2022-09-11T03:46:01.068Z,74.38
2022-09-11T03:48:29.268Z,74.58
2022-09-11T03:50:58.910Z,75.94
2022-09-11T03:53:26.813Z,75.37
2022-09-11T03:55:54.864Z,75.34
2022-09-11T03:58:22.560Z,75.30
2022-09-11T04:00:50.125Z,76.69
2022-09-11T04:03:18.103Z,76.43
2022-09-11T04:05:57.950Z,76.52
2022-09-11T04:08:26.054Z,76.84
2022-09-11T04:11:06.749Z,76.63
2022-09-11T04:13:38.884Z,76.45
2022-09-11T04:16:13.047Z,76.40
2022-09-11T04:18:45.890Z,76.82
2022-09-11T04:21:16.857Z,77.23
2022-09-11T04:23:51.594Z,77.36
2022-09-11T04:26:20.701Z,77.12
2022-09-11T04:28:52.731Z,76.90
2022-09-11T04:31:21.939Z,76.86
2022-09-11T04:33:49.956Z,77.34
2022-09-11T04:36:19.261Z,78.30
2022-09-11T04:38:50.665Z,77.48
2022-09-11T04:41:19.257Z,76.72
2022-09-11T04:43:47.411Z,76.67
2022-09-11T04:46:17.746Z,77.23
2022-09-11T04:48:47.381Z,77.41
2022-09-11T04:51:29.167Z,77.50
2022-09-11T04:53:59.071Z,77.42
2022-09-11T04:56:34.323Z,76.57
2022-09-11T04:59:13.358Z,76.69
2022-09-11T05:01:44.359Z,76.14
2022-09-11T05:04:13.489Z,75.47
2022-09-11T05:06:48.304Z,75.25
2022-09-11T05:09:18.451Z,74.72
2022-09-11T05:11:48.175Z,74.93
2022-09-11T05:14:18.471Z,75.13
2022-09-11T05:16:48.316Z,75.42
2022-09-11T05:19:20.046Z,74.54
2022-09-11T05:21:48.219Z,74.27
2022-09-11T05:24:16.448Z,73.96
2022-09-11T05:26:44.179Z,73.50
2022-09-11T05:29:15.547Z,73.42
2022-09-11T05:31:48.377Z,73.21
2022-09-11T05:34:21.218Z,73.54
2022-09-11T05:36:50.158Z,73.85
2022-09-11T05:39:18.456Z,72.90
2022-09-11T05:41:46.015Z,72.71
2022-09-11T05:44:14.058Z,72.62
2022-09-11T05:46:41.871Z,71.88
2022-09-11T05:49:09.409Z,71.10
2022-09-11T05:51:38.121Z,71.46
2022-09-11T05:54:06.755Z,70.72
2022-09-11T05:56:35.117Z,68.80
2022-09-11T05:59:14.304Z,68.23
2022-09-11T06:01:43.273Z,66.98
2022-09-11T06:04:20.938Z,66.91
2022-09-11T06:06:51.683Z,64.40
2022-09-11T06:09:19.951Z,64.96
2022-09-11T06:11:47.789Z,66.13
2022-09-11T06:14:15.529Z,66.07
2022-09-11T06:16:45.087Z,65.38
2022-09-11T06:19:16.813Z,64.99
2022-09-11T06:21:45.499Z,64.52
2022-09-11T06:24:42.263Z,63.93
2022-09-11T06:27:10.211Z,64.11
2022-09-11T06:29:42.095Z,63.14
2022-09-11T06:32:10.002Z,64.19
2022-09-11T06:34:39.709Z,63.31
2022-09-11T06:37:10.777Z,61.32
2022-09-11T06:39:38.537Z,61.12
2022-09-11T06:42:07.685Z,60.55
2022-09-11T06:44:37.428Z,60.94
2022-09-11T06:47:06.660Z,60.58
2022-09-11T06:49:36.089Z,61.49
2022-09-11T06:52:21.787Z,60.91
2022-09-11T06:55:02.278Z,63.29
2022-09-11T06:57:30.793Z,62.11
2022-09-11T06:59:58.601Z,61.70
2022-09-11T07:02:26.981Z,62.36
2022-09-11T07:04:55.545Z,59.66
2022-09-11T07:07:26.274Z,60.30
2022-09-11T07:09:53.837Z,60.03
2022-09-11T07:12:24.005Z,59.96
2022-09-11T07:14:51.932Z,59.31
2022-09-11T07:17:19.759Z,58.81
2022-09-11T07:19:50.616Z,57.99
2022-09-11T07:22:19.757Z,57.39
2022-09-11T07:24:48.572Z,57.49
2022-09-11T07:27:16.752Z,56.71
2022-09-11T07:29:44.273Z,59.36
2022-09-11T07:32:11.786Z,58.64
2022-09-11T07:34:40.551Z,59.23
2022-09-11T07:37:10.868Z,59.11
2022-09-11T07:39:40.619Z,57.58
2022-09-11T07:42:14.752Z,58.48
2022-09-11T07:44:43.183Z,57.96
2022-09-11T07:47:12.931Z,57.50
2022-09-11T07:49:48.092Z,54.75
2022-09-11T07:52:16.993Z,54.13
2022-09-11T07:54:51.033Z,55.47
2022-09-11T07:57:19.461Z,56.50
2022-09-11T07:59:47.744Z,57.91
2022-09-11T08:02:18.102Z,58.77
2022-09-11T08:04:45.635Z,57.94
2022-09-11T08:07:13.808Z,57.34
2022-09-11T08:09:41.538Z,56.32
2022-09-11T08:12:10.839Z,51.28
2022-09-11T08:14:39.998Z,50.11
2022-09-11T08:17:16.651Z,51.99
2022-09-11T08:19:44.160Z,52.43
2022-09-11T08:22:14.086Z,53.68
2022-09-11T08:24:45.171Z,53.23
2022-09-11T08:27:16.041Z,55.00
2022-09-11T08:29:44.176Z,55.21
2022-09-11T08:32:13.353Z,57.06
2022-09-11T08:34:44.315Z,52.07
2022-09-11T08:37:11.987Z,49.78
2022-09-11T08:39:39.825Z,47.60
2022-09-11T08:42:15.111Z,45.07
2022-09-11T08:44:50.471Z,46.27
2022-09-11T08:47:39.654Z,45.39
2022-09-11T08:50:23.773Z,45.92
2022-09-11T08:52:54.192Z,49.99
2022-09-11T08:55:55.664Z,50.01
2022-09-11T08:58:46.108Z,49.32
2022-09-11T09:01:37.148Z,49.53
2022-09-11T09:04:24.277Z,49.73
2022-09-11T09:07:05.777Z,48.60
2022-09-11T09:10:14.376Z,49.56
2022-09-11T09:12:51.283Z,47.48
2022-09-11T09:15:32.594Z,48.37
2022-09-11T09:18:15.015Z,45.88
2022-09-11T09:21:02.106Z,48.95
2022-09-11T09:23:38.518Z,49.34
2022-09-11T09:26:15.737Z,50.38
2022-09-11T09:28:50.582Z,47.45
2022-09-11T09:31:21.996Z,49.01
2022-09-11T09:34:05.945Z,46.61
2022-09-11T09:36:46.265Z,46.32
2022-09-11T09:39:16.577Z,46.41
2022-09-11T09:42:08.444Z,46.20
2022-09-11T09:45:13.567Z,44.36
2022-09-11T09:47:44.602Z,40.09
2022-09-11T09:50:17.450Z,37.79
2022-09-11T09:52:45.591Z,34.73
2022-09-11T09:55:20.496Z,35.89
2022-09-11T09:57:48.251Z,37.41
2022-09-11T10:00:19.948Z,38.86
2022-09-11T10:02:58.593Z,41.81
2022-09-11T10:05:32.040Z,42.79
2022-09-11T10:08:03.849Z,40.48
2022-09-11T10:10:36.789Z,40.34
2022-09-11T10:13:28.461Z,37.79
2022-09-11T10:15:59.761Z,38.79
2022-09-11T10:18:33.278Z,40.51
2022-09-11T10:21:12.599Z,43.63
2022-09-11T10:23:47.259Z,45.29
2022-09-11T10:26:18.006Z,46.38
2022-09-11T10:28:46.909Z,48.84
2022-09-11T10:31:18.842Z,49.64
2022-09-11T10:33:51.501Z,50.88
2022-09-11T10:36:24.555Z,51.28
2022-09-11T10:38:52.978Z,50.20
2022-09-11T10:41:26.127Z,49.39
2022-09-11T10:43:56.134Z,46.88
2022-09-11T10:46:44.040Z,46.03
2022-09-11T10:49:11.529Z,46.66
2022-09-11T10:51:45.415Z,47.20
2022-09-11T10:54:23.075Z,40.21
2022-09-11T10:57:06.492Z,34.08
2022-09-11T10:59:40.868Z,33.66
2022-09-11T11:02:20.862Z,38.32
2022-09-11T11:04:48.962Z,40.54
2022-09-11T11:07:40.395Z,43.45
2022-09-11T11:10:36.397Z,44.89
2022-09-11T11:13:22.919Z,47.80
2022-09-11T11:15:59.500Z,44.08
2022-09-11T11:18:41.646Z,46.11
2022-09-11T11:21:23.356Z,45.81
2022-09-11T11:23:51.858Z,47.78
2022-09-11T11:26:44.113Z,48.95
2022-09-11T11:29:18.467Z,48.61
2022-09-11T11:31:55.702Z,49.94
2022-09-11T11:34:46.964Z,48.36
2022-09-11T11:37:20.495Z,48.68
2022-09-11T11:40:10.477Z,45.28
2022-09-11T11:42:46.763Z,43.99
2022-09-11T11:45:32.203Z,43.84
2022-09-11T11:48:11.253Z,37.76
2022-09-11T11:50:46.212Z,38.39
2022-09-11T11:53:35.283Z,42.39
2022-09-11T11:56:14.848Z,42.24
2022-09-11T11:59:19.567Z,42.89
2022-09-11T12:01:54.707Z,43.96
2022-09-11T12:04:34.264Z,45.19
2022-09-11T12:07:04.136Z,46.06
2022-09-11T12:09:33.818Z,48.75
2022-09-11T12:12:07.223Z,49.54
2022-09-11T12:14:35.200Z,50.82
2022-09-11T12:17:25.325Z,52.45
2022-09-11T12:20:10.916Z,54.84
2022-09-11T12:22:47.410Z,56.85
2022-09-11T12:25:21.092Z,55.12
2022-09-11T12:28:11.014Z,51.66
2022-09-11T12:31:05.057Z,48.42
2022-09-11T12:33:41.445Z,47.15
2022-09-11T12:36:13.183Z,42.13
2022-09-11T12:38:50.248Z,36.87
2022-09-11T12:41:34.286Z,35.84
2022-09-11T12:44:03.935Z,37.11
2022-09-11T12:46:31.378Z,41.10
2022-09-11T12:49:22.667Z,45.49
2022-09-11T12:51:52.929Z,46.34
2022-09-11T12:54:39.533Z,45.86
2022-09-11T12:57:25.930Z,44.65
2022-09-11T12:59:59.369Z,43.82
2022-09-11T13:02:43.956Z,46.07
2022-09-11T13:05:25.801Z,44.15
2022-09-11T13:08:00.320Z,40.22
2022-09-11T13:10:33.334Z,39.11
2022-09-11T13:13:07.303Z,44.87
2022-09-11T13:15:44.711Z,38.18
2022-09-11T13:18:25.502Z,33.99
2022-09-11T13:21:01.507Z,36.71
2022-09-11T13:23:29.349Z,34.03
2022-09-11T13:25:58.258Z,34.88
2022-09-11T13:28:28.951Z,37.97
2022-09-11T13:31:03.323Z,36.48
2022-09-11T13:33:32.546Z,34.43
2022-09-11T13:36:02.779Z,35.69
2022-09-11T13:38:36.609Z,36.09
2022-09-11T13:41:13.175Z,36.91
2022-09-11T13:43:45.109Z,35.49
2022-09-11T13:46:15.886Z,34.72
2022-09-11T13:48:44.912Z,34.17
2022-09-11T13:51:19.023Z,32.15
2022-09-11T13:53:53.973Z,34.09
2022-09-11T13:56:51.106Z,33.02
2022-09-11T13:59:50.420Z,33.68
2022-09-11T14:02:21.067Z,35.73
2022-09-11T14:04:52.242Z,35.57
2022-09-11T14:07:26.486Z,35.37
2022-09-11T14:10:19.887Z,36.69
2022-09-11T14:12:57.434Z,35.69
2022-09-11T14:15:51.980Z,35.23
2022-09-11T14:18:24.290Z,36.31
2022-09-11T14:20:53.473Z,37.14
2022-09-11T14:23:25.095Z,36.86
2022-09-11T14:26:06.084Z,37.04
2022-09-11T14:28:43.232Z,37.08
2022-09-11T14:31:13.977Z,36.43
2022-09-11T14:33:41.917Z,37.45
2022-09-11T14:36:20.183Z,41.96
2022-09-11T14:38:48.094Z,43.87
2022-09-11T14:41:15.620Z,46.31
2022-09-11T14:43:45.619Z,42.40
2022-09-11T14:46:16.681Z,41.18
2022-09-11T14:48:44.272Z,44.68
2022-09-11T14:51:13.669Z,39.98
2022-09-11T14:53:43.433Z,37.51
2022-09-11T14:56:11.212Z,42.26
2022-09-11T14:58:38.701Z,39.75
2022-09-11T15:01:06.199Z,37.43
2022-09-11T15:03:33.805Z,41.14
2022-09-11T15:06:01.416Z,43.65
2022-09-11T15:08:28.904Z,47.18
2022-09-11T15:10:56.355Z,47.36
2022-09-11T15:13:23.832Z,48.36
2022-09-11T15:15:53.162Z,46.68
2022-09-11T15:18:20.784Z,46.73
2022-09-11T15:20:49.227Z,50.08
2022-09-11T15:23:16.847Z,50.82
2022-09-11T15:25:44.390Z,50.80
2022-09-11T15:28:12.683Z,51.62
2022-09-11T15:30:57.341Z,50.89
2022-09-11T15:33:27.296Z,50.39
2022-09-11T15:36:00.865Z,51.32
2022-09-11T15:38:28.803Z,52.06
2022-09-11T15:40:56.944Z,51.50
2022-09-11T15:43:25.349Z,51.73
2022-09-11T15:45:52.896Z,52.06
2022-09-11T15:48:21.388Z,53.58
2022-09-11T15:50:59.363Z,55.18
2022-09-11T15:53:31.310Z,55.71
2022-09-11T15:56:07.875Z,56.71
2022-09-11T15:59:01.186Z,57.36
2022-09-11T16:01:34.540Z,57.20
2022-09-11T16:04:07.249Z,57.82
2022-09-11T16:06:39.013Z,58.44
2022-09-11T16:09:10.539Z,59.21
2022-09-11T16:11:39.882Z,59.82
2022-09-11T16:14:15.489Z,60.08
2022-09-11T16:16:44.688Z,60.11
2022-09-11T16:19:18.636Z,60.25
2022-09-11T16:21:47.617Z,60.40
2022-09-11T16:24:15.730Z,60.96
2022-09-11T16:26:44.717Z,61.50
2022-09-11T16:29:18.118Z,62.17
2022-09-11T16:31:45.919Z,62.71
2022-09-11T16:34:15.102Z,63.09
2022-09-11T16:36:42.630Z,63.84
2022-09-11T16:39:16.028Z,63.44
2022-09-11T16:41:44.538Z,63.88
2022-09-11T16:44:15.025Z,65.09
2022-09-11T16:46:46.167Z,65.05
2022-09-11T16:49:20.906Z,65.51
2022-09-11T16:51:49.205Z,66.38
2022-09-11T16:54:17.161Z,66.55
2022-09-11T16:56:46.188Z,67.60
2022-09-11T16:59:15.659Z,67.34
2022-09-11T17:01:43.398Z,68.48
2022-09-11T17:04:11.936Z,68.89
2022-09-11T17:06:40.853Z,69.33
2022-09-11T17:09:08.640Z,69.23
2022-09-11T17:11:37.439Z,70.54
2022-09-11T17:14:05.424Z,70.30
2022-09-11T17:16:35.974Z,71.32
2022-09-11T17:19:03.875Z,71.34
2022-09-11T17:21:38.373Z,71.90
2022-09-11T17:24:07.548Z,71.51
2022-09-11T17:26:37.141Z,72.41
2022-09-11T17:29:05.537Z,72.72
2022-09-11T17:31:33.361Z,72.78
2022-09-11T17:34:00.996Z,73.27
2022-09-11T17:36:28.662Z,73.49
2022-09-11T17:38:59.853Z,73.68
2022-09-11T17:41:27.512Z,73.14
2022-09-11T17:43:56.008Z,73.36
2022-09-11T17:46:24.118Z,74.11
2022-09-11T17:48:51.744Z,74.06
2022-09-11T17:51:25.106Z,73.58
2022-09-11T17:53:56.726Z,74.07
2022-09-11T17:56:28.150Z,73.77
2022-09-11T17:58:58.267Z,73.93
2022-09-11T18:01:27.632Z,73.04
2022-09-11T18:03:59.086Z,73.05
2022-09-11T18:06:27.822Z,73.20
2022-09-11T18:09:00.333Z,72.71
2022-09-11T18:11:29.919Z,72.58
2022-09-11T18:14:00.448Z,72.60
2022-09-11T18:16:28.202Z,72.33
2022-09-11T18:18:56.701Z,72.59
2022-09-11T18:21:26.161Z,72.80
2022-09-11T18:23:54.843Z,72.96
2022-09-11T18:26:27.436Z,72.79
2022-09-11T18:29:00.835Z,73.67
2022-09-11T18:31:31.313Z,74.11
2022-09-11T18:34:00.717Z,74.38
2022-09-11T18:36:30.876Z,74.17
2022-09-11T18:39:03.834Z,73.22
2022-09-11T18:41:33.282Z,72.91
2022-09-11T18:44:04.095Z,73.04
2022-09-11T18:46:31.827Z,72.90
2022-09-11T18:48:59.996Z,73.50
2022-09-11T18:51:27.908Z,73.29
2022-09-11T18:53:56.059Z,73.47
2022-09-11T18:56:28.499Z,73.65
2022-09-11T18:58:56.430Z,73.90
2022-09-11T19:01:26.552Z,73.12
2022-09-11T19:03:55.442Z,72.96
2022-09-11T19:06:25.231Z,72.69
2022-09-11T19:08:54.771Z,72.45
2022-09-11T19:11:28.613Z,72.17
2022-09-11T19:14:01.996Z,71.70
2022-09-11T19:16:29.601Z,71.40
2022-09-11T19:18:57.190Z,72.10
2022-09-11T19:21:26.420Z,71.73
2022-09-11T19:23:57.689Z,72.39
2022-09-11T19:26:34.979Z,72.73
2022-09-11T19:29:02.684Z,73.43
2022-09-11T19:31:30.436Z,73.99
2022-09-11T19:34:02.830Z,73.41
2022-09-11T19:36:32.730Z,74.07
2022-09-11T19:39:00.881Z,73.71
2022-09-11T19:41:34.915Z,73.67
2022-09-11T19:44:03.798Z,74.00
2022-09-11T19:46:33.586Z,73.87
2022-09-11T19:49:08.940Z,74.45
2022-09-11T19:51:42.045Z,74.22
2022-09-11T19:54:11.929Z,74.15
2022-09-11T19:56:40.107Z,74.75
2022-09-11T19:59:08.499Z,74.86
2022-09-11T20:01:36.112Z,75.11
2022-09-11T20:04:03.903Z,75.81
2022-09-11T20:06:33.229Z,75.51
2022-09-11T20:11:50.666Z,76.46
2022-09-11T20:14:18.277Z,76.36
2022-09-11T20:16:45.844Z,77.01
2022-09-11T20:19:15.034Z,77.20
2022-09-11T20:21:43.072Z,77.35
2022-09-11T20:24:10.579Z,77.19
2022-09-11T20:26:38.162Z,77.49
2022-09-11T20:29:11.961Z,77.79
2022-09-11T20:31:48.667Z,78.03
2022-09-11T20:34:20.155Z,78.47
2022-09-11T20:36:48.283Z,78.53
2022-09-11T20:39:16.528Z,79.03
2022-09-11T20:41:44.627Z,79.00
2022-09-11T20:44:12.201Z,78.98
2022-09-11T20:46:40.481Z,79.12
2022-09-11T20:49:08.044Z,79.54
2022-09-11T20:51:35.585Z,80.25
2022-09-11T20:54:03.846Z,80.39
2022-09-11T20:56:31.623Z,80.40
2022-09-11T20:59:00.621Z,80.43
2022-09-11T21:01:32.578Z,80.63
2022-09-11T21:04:02.362Z,80.65
2022-09-11T21:06:31.653Z,81.16
2022-09-11T21:09:01.813Z,81.14
2022-09-11T21:11:30.633Z,81.14
2022-09-11T21:13:58.802Z,81.19
2022-09-11T21:16:26.630Z,81.52
2022-09-11T21:18:56.923Z,81.29
2022-09-11T21:21:26.138Z,81.37
2022-09-11T21:23:58.463Z,81.47
2022-09-11T21:26:28.586Z,81.46
2022-09-11T21:28:57.809Z,81.46
2022-09-11T21:31:26.129Z,81.84
2022-09-11T21:33:53.942Z,82.38
2022-09-11T21:36:21.411Z,82.03
2022-09-11T21:38:48.931Z,82.33
2022-09-11T21:41:16.554Z,81.60
2022-09-11T21:43:45.629Z,81.29
2022-09-11T21:46:13.595Z,80.87
2022-09-11T21:48:41.763Z,80.04
2022-09-11T21:51:20.296Z,78.26
2022-09-11T21:53:49.496Z,77.06
2022-09-11T21:56:26.661Z,76.05
2022-09-11T21:58:55.081Z,76.42
2022-09-11T22:01:25.015Z,76.45
2022-09-11T22:03:53.405Z,76.79
2022-09-11T22:06:24.506Z,77.18
2022-09-11T22:08:53.502Z,77.03
2022-09-11T22:11:21.200Z,78.37
2022-09-11T22:13:49.306Z,78.80
2022-09-11T22:16:19.352Z,79.66
2022-09-11T22:18:50.689Z,80.61
2022-09-11T22:21:18.570Z,81.94
2022-09-11T22:23:46.224Z,82.34
2022-09-11T22:26:17.455Z,82.54
2022-09-11T22:28:45.623Z,83.34
2022-09-11T22:31:23.870Z,83.85
2022-09-11T22:33:52.575Z,84.03
2022-09-11T22:36:23.623Z,82.90
2022-09-11T22:38:51.864Z,84.29
2022-09-11T22:41:20.333Z,83.84
2022-09-11T22:43:50.117Z,84.52
2022-09-11T22:46:20.681Z,84.40
2022-09-11T22:48:48.664Z,84.10
2022-09-11T22:51:16.733Z,83.49
2022-09-11T22:53:44.759Z,83.51
2022-09-11T22:56:13.897Z,83.46
2022-09-11T22:58:42.102Z,83.23
2022-09-11T23:01:12.215Z,83.18
2022-09-11T23:03:40.244Z,83.09
2022-09-11T23:06:28.461Z,83.53
2022-09-11T23:08:56.199Z,82.38
2022-09-11T23:11:29.106Z,82.64
2022-09-11T23:13:57.118Z,83.03
2022-09-11T23:16:28.196Z,83.41
2022-09-11T23:19:01.246Z,82.50
2022-09-11T23:21:31.023Z,83.05
2022-09-11T23:23:59.561Z,83.47
2022-09-11T23:26:28.795Z,83.63
2022-09-11T23:28:56.594Z,83.82
2022-09-11T23:31:26.573Z,84.45
2022-09-11T23:33:56.698Z,84.19
2022-09-11T23:36:25.321Z,84.31
2022-09-11T23:38:53.295Z,84.10
2022-09-11T23:41:21.635Z,85.13
2022-09-11T23:43:49.403Z,85.12
2022-09-11T23:46:17.382Z,84.29
2022-09-11T23:48:45.347Z,83.04
2022-09-11T23:51:13.418Z,82.28
2022-09-11T23:53:44.877Z,82.49
2022-09-11T23:56:17.321Z,82.46
2022-09-11T23:58:45.711Z,81.92
